Terminal Aerodrome Forecast
Issued by NWS

Home | Current Version | Previous Version | Text Only | Print | Product List | Glossary On
Versions: 1 2 3 4 5 6 7 8 9 10 11 12 13 14
000
FTPA31 PHFO 221135
TAFHOG
TAF
PHOG 221135Z 2212/2312 06010KT P6SM VCSH SCT025 BKN050
     FM222000 06015G25KT P6SM FEW030 SCT050
     FM230500 06011KT P6SM FEW030 SCT050=

USA.gov is the U.S. government's official web portal to all federal, state and local government web resources and services.